createdAt,value
2018-08-30T00:00:02.924Z,93.42
2018-08-30T00:02:32.403Z,93.79
2018-08-30T00:05:00.760Z,93.50
2018-08-30T00:07:31.722Z,92.59
2018-08-30T00:10:00.072Z,91.53
2018-08-30T00:12:29.059Z,91.24
2018-08-30T00:14:59.548Z,91.24
2018-08-30T00:17:32.432Z,91.52
2018-08-30T00:20:01.640Z,92.31
2018-08-30T00:22:30.212Z,92.06
2018-08-30T00:24:59.481Z,91.83
2018-08-30T00:27:29.575Z,92.83
2018-08-30T00:29:58.469Z,91.57
2018-08-30T00:32:27.644Z,91.64
2018-08-30T00:34:57.304Z,91.43
2018-08-30T00:37:26.475Z,91.81
2018-08-30T00:39:55.966Z,91.63
2018-08-30T00:42:24.303Z,91.24
2018-08-30T00:44:52.680Z,90.84
2018-08-30T00:47:21.823Z,91.00
2018-08-30T00:49:52.020Z,90.49
2018-08-30T00:52:24.023Z,90.83
2018-08-30T00:54:52.416Z,90.84
2018-08-30T00:57:22.423Z,92.22
2018-08-30T00:59:51.499Z,91.71
2018-08-30T01:02:21.073Z,91.69
2018-08-30T01:04:51.098Z,91.85
2018-08-30T01:07:20.605Z,92.40
2018-08-30T01:09:48.953Z,92.52
2018-08-30T01:12:17.696Z,91.58
2018-08-30T01:14:46.437Z,91.96
2018-08-30T01:17:15.391Z,92.85
2018-08-30T01:19:44.379Z,93.17
2018-08-30T01:22:14.190Z,92.08
2018-08-30T01:24:42.554Z,93.20
2018-08-30T01:27:12.634Z,91.40
2018-08-30T01:29:41.504Z,92.10
2018-08-30T01:32:10.793Z,93.18
2018-08-30T01:34:39.774Z,92.74
2018-08-30T01:37:08.156Z,91.85
2018-08-30T01:39:37.452Z,92.96
2018-08-30T01:42:07.599Z,92.76
2018-08-30T01:44:36.495Z,92.33
2018-08-30T01:47:06.257Z,92.62
2018-08-30T01:49:35.682Z,91.50
2018-08-30T01:52:05.181Z,91.91
2018-08-30T01:54:34.535Z,92.49
2018-08-30T01:57:17.797Z,90.99
2018-08-30T01:59:46.833Z,92.42
2018-08-30T02:02:16.466Z,92.37
2018-08-30T02:04:46.728Z,91.38
2018-08-30T02:07:16.702Z,91.85
2018-08-30T02:09:48.031Z,90.90
2018-08-30T02:12:18.893Z,91.23
2018-08-30T02:14:49.936Z,91.54
2018-08-30T02:17:19.443Z,92.02
2018-08-30T02:19:48.636Z,92.34
2018-08-30T02:22:18.142Z,92.38
2018-08-30T02:24:47.177Z,91.46
2018-08-30T02:27:16.488Z,91.15
2018-08-30T02:29:46.495Z,92.35
2018-08-30T02:32:15.646Z,92.17
2018-08-30T02:34:46.644Z,91.64
2018-08-30T02:37:16.547Z,91.03
2018-08-30T02:39:46.428Z,91.20
2018-08-30T02:42:15.598Z,91.57
2018-08-30T02:44:45.844Z,91.40
2018-08-30T02:47:14.485Z,91.13
2018-08-30T02:49:43.095Z,90.73
2018-08-30T02:52:13.336Z,91.76
2018-08-30T02:54:43.279Z,92.22
2018-08-30T02:57:13.296Z,91.47
2018-08-30T02:59:42.396Z,90.91
2018-08-30T03:02:11.583Z,90.88
2018-08-30T03:04:42.356Z,90.01
2018-08-30T03:07:11.980Z,89.99
2018-08-30T03:09:41.392Z,90.57
2018-08-30T03:12:09.733Z,91.84
2018-08-30T03:14:40.928Z,91.15
2018-08-30T03:17:10.097Z,90.78
2018-08-30T03:19:38.755Z,91.21
2018-08-30T03:22:07.537Z,91.96
2018-08-30T03:24:37.297Z,91.99
2018-08-30T03:27:07.304Z,92.15
2018-08-30T03:29:35.701Z,90.89
2018-08-30T03:32:04.837Z,92.48
2018-08-30T03:34:33.175Z,91.70
2018-08-30T03:37:02.804Z,92.44
2018-08-30T03:39:33.359Z,92.41
2018-08-30T03:42:02.756Z,91.84
2018-08-30T03:44:31.468Z,91.99
2018-08-30T03:47:00.314Z,91.84
2018-08-30T03:49:29.572Z,90.63
2018-08-30T03:51:58.385Z,90.84
2018-08-30T03:54:30.169Z,91.57
2018-08-30T03:56:59.189Z,92.02
2018-08-30T03:59:29.617Z,91.30
2018-08-30T04:02:00.680Z,91.08
2018-08-30T04:04:29.797Z,91.61
2018-08-30T04:06:58.934Z,91.43
2018-08-30T04:09:27.979Z,91.72
2018-08-30T04:11:56.948Z,92.01
2018-08-30T04:14:25.587Z,92.27
2018-08-30T04:16:54.039Z,93.02
2018-08-30T04:19:23.340Z,93.06
2018-08-30T04:21:52.194Z,93.48
2018-08-30T04:24:21.391Z,94.12
2018-08-30T04:26:51.479Z,92.61
2018-08-30T04:29:24.229Z,92.85
2018-08-30T04:31:56.880Z,92.32
2018-08-30T04:34:27.212Z,91.33
2018-08-30T04:36:57.060Z,90.96
2018-08-30T04:39:26.132Z,90.86
2018-08-30T04:41:54.588Z,90.86
2018-08-30T04:44:24.275Z,91.28
2018-08-30T04:46:54.131Z,90.84
2018-08-30T04:49:23.015Z,90.25
2018-08-30T04:51:52.056Z,89.89
2018-08-30T04:54:20.984Z,89.80
2018-08-30T04:56:50.388Z,88.84
2018-08-30T04:59:18.751Z,88.86
2018-08-30T05:01:47.607Z,88.86
2018-08-30T05:04:16.206Z,88.17
2018-08-30T05:06:45.155Z,90.04
2018-08-30T05:09:13.992Z,90.04
2018-08-30T05:11:42.352Z,89.55
2018-08-30T05:14:11.284Z,89.95
2018-08-30T05:16:39.688Z,88.71
2018-08-30T05:19:08.112Z,88.93
2018-08-30T05:21:36.526Z,88.82
2018-08-30T05:24:04.895Z,89.04
2018-08-30T05:26:33.270Z,88.27
2018-08-30T05:29:02.540Z,89.27
2018-08-30T05:31:31.572Z,88.04
2018-08-30T05:34:01.219Z,86.87
2018-08-30T05:36:30.453Z,87.46
2018-08-30T05:38:58.836Z,86.64
2018-08-30T05:41:28.036Z,87.16
2018-08-30T05:43:57.911Z,85.55
2018-08-30T05:46:27.266Z,85.90
2018-08-30T05:48:56.183Z,85.43
2018-08-30T05:51:25.158Z,85.20
2018-08-30T05:53:54.081Z,84.26
2018-08-30T05:56:23.272Z,84.09
2018-08-30T05:58:52.101Z,85.55
2018-08-30T06:01:20.748Z,85.46
2018-08-30T06:03:50.829Z,84.72
2018-08-30T06:06:19.871Z,85.08
2018-08-30T06:08:50.421Z,84.60
2018-08-30T06:11:19.986Z,84.59
2018-08-30T06:13:49.652Z,84.79
2018-08-30T06:16:19.515Z,82.59
2018-08-30T06:18:48.595Z,83.93
2018-08-30T06:21:16.964Z,82.07
2018-08-30T06:23:46.446Z,83.10
2018-08-30T06:26:16.523Z,83.84
2018-08-30T06:28:46.268Z,82.69
2018-08-30T06:31:15.503Z,82.57
2018-08-30T06:33:44.559Z,81.53
2018-08-30T06:36:13.368Z,82.25
2018-08-30T06:38:42.005Z,82.21
2018-08-30T06:41:10.428Z,82.01
2018-08-30T06:43:38.818Z,82.67
2018-08-30T06:46:07.486Z,81.38
2018-08-30T06:48:36.723Z,78.17
2018-08-30T06:51:06.938Z,77.42
2018-08-30T06:53:36.548Z,76.21
2018-08-30T06:56:05.801Z,75.65
2018-08-30T06:58:35.017Z,77.41
2018-08-30T07:01:03.584Z,76.36
2018-08-30T07:03:32.407Z,76.00
2018-08-30T07:06:01.392Z,76.40
2018-08-30T07:08:30.546Z,76.37
2018-08-30T07:11:00.738Z,76.62
2018-08-30T07:13:32.420Z,78.37
2018-08-30T07:16:00.846Z,76.71
2018-08-30T07:18:29.261Z,77.87
2018-08-30T07:20:58.501Z,77.46
2018-08-30T07:23:27.778Z,79.39
2018-08-30T07:25:56.919Z,80.94
2018-08-30T07:28:26.853Z,79.69
2018-08-30T07:30:55.646Z,80.37
2018-08-30T07:33:25.131Z,81.52
2018-08-30T07:35:55.598Z,79.72
2018-08-30T07:38:24.306Z,80.70
2018-08-30T07:40:54.111Z,79.50
2018-08-30T07:43:23.895Z,77.67
2018-08-30T07:45:53.228Z,75.72
2018-08-30T07:48:21.873Z,75.87
2018-08-30T07:50:50.598Z,75.00
2018-08-30T07:53:19.851Z,75.41
2018-08-30T07:55:50.656Z,78.74
2018-08-30T07:58:23.679Z,76.54
2018-08-30T08:00:53.992Z,73.88
2018-08-30T08:03:23.096Z,73.36
2018-08-30T08:05:52.388Z,72.96
2018-08-30T08:08:21.756Z,72.94
2018-08-30T08:10:50.376Z,73.13
2018-08-30T08:13:19.844Z,72.33
2018-08-30T08:15:48.300Z,69.46
2018-08-30T08:18:18.992Z,71.37
2018-08-30T08:20:48.759Z,72.81
2018-08-30T08:23:17.679Z,72.27
2018-08-30T08:25:49.234Z,71.80
2018-08-30T08:28:19.528Z,71.97
2018-08-30T08:30:53.008Z,70.16
2018-08-30T08:33:21.710Z,70.20
2018-08-30T08:35:50.858Z,69.52
2018-08-30T08:38:19.225Z,68.13
2018-08-30T08:40:48.445Z,66.44
2018-08-30T08:43:18.299Z,70.17
2018-08-30T08:45:47.804Z,67.25
2018-08-30T08:48:17.013Z,66.22
2018-08-30T08:50:45.608Z,66.33
2018-08-30T08:53:15.382Z,65.97
2018-08-30T08:55:44.150Z,67.06
2018-08-30T08:58:14.367Z,68.65
2018-08-30T09:00:44.331Z,68.25
2018-08-30T09:03:13.475Z,67.40
2018-08-30T09:05:45.014Z,68.21
2018-08-30T09:08:13.387Z,66.50
2018-08-30T09:10:43.579Z,63.62
2018-08-30T09:13:12.527Z,63.37
2018-08-30T09:15:41.460Z,63.67
2018-08-30T09:18:09.948Z,62.42
2018-08-30T09:20:38.864Z,63.51
2018-08-30T09:23:07.813Z,64.42
2018-08-30T09:25:36.384Z,64.27
2018-08-30T09:28:07.432Z,66.46
2018-08-30T09:30:37.957Z,65.46
2018-08-30T09:33:07.324Z,64.90
2018-08-30T09:35:38.411Z,66.17
2018-08-30T09:38:07.747Z,63.31
2018-08-30T09:40:39.269Z,63.60
2018-08-30T09:43:07.806Z,64.60
2018-08-30T09:45:37.944Z,65.03
2018-08-30T09:48:07.079Z,65.90
2018-08-30T09:50:36.262Z,66.69
2018-08-30T09:53:05.535Z,67.14
2018-08-30T09:55:34.510Z,67.64
2018-08-30T09:58:05.782Z,67.08
2018-08-30T10:00:40.667Z,65.37
2018-08-30T10:03:11.871Z,65.15
2018-08-30T10:05:43.342Z,64.53
2018-08-30T10:08:17.444Z,64.12
2018-08-30T10:10:47.312Z,63.66
2018-08-30T10:13:18.770Z,62.64
2018-08-30T10:15:49.570Z,63.15
2018-08-30T10:18:20.565Z,60.68
2018-08-30T10:20:54.948Z,58.80
2018-08-30T10:23:23.361Z,61.42
2018-08-30T10:25:54.100Z,59.87
2018-08-30T10:28:29.376Z,59.61
2018-08-30T10:31:00.009Z,58.79
2018-08-30T10:33:29.948Z,58.25
2018-08-30T10:35:59.369Z,60.78
2018-08-30T10:38:31.940Z,61.44
2018-08-30T10:41:02.055Z,58.60
2018-08-30T10:43:31.061Z,58.08
2018-08-30T10:46:01.897Z,51.70
2018-08-30T10:48:32.833Z,49.97
2018-08-30T10:51:03.013Z,53.16
2018-08-30T10:53:33.098Z,53.62
2018-08-30T10:56:09.449Z,55.38
2018-08-30T10:58:40.319Z,53.31
2018-08-30T11:01:10.580Z,54.19
2018-08-30T11:03:41.960Z,52.90
2018-08-30T11:06:11.587Z,53.35
2018-08-30T11:08:43.186Z,53.19
2018-08-30T11:11:13.704Z,54.17
2018-08-30T11:13:42.067Z,54.98
2018-08-30T11:16:10.915Z,53.67
2018-08-30T11:18:41.329Z,54.01
2018-08-30T11:21:10.685Z,54.48
2018-08-30T11:23:39.819Z,57.75
2018-08-30T11:26:09.327Z,55.57
2018-08-30T11:28:40.156Z,58.98
2018-08-30T11:31:09.615Z,59.56
2018-08-30T11:33:38.704Z,61.24
2018-08-30T11:36:08.743Z,58.95
2018-08-30T11:38:38.467Z,58.95
2018-08-30T11:41:06.879Z,60.44
2018-08-30T11:43:38.371Z,60.24
2018-08-30T11:46:09.932Z,58.86
2018-08-30T11:48:38.308Z,56.94
2018-08-30T11:51:08.521Z,57.70
2018-08-30T11:53:38.267Z,55.72
2018-08-30T11:56:07.540Z,53.91
2018-08-30T11:58:37.246Z,55.45
2018-08-30T12:01:06.748Z,55.75
2018-08-30T12:03:35.707Z,55.32
2018-08-30T12:06:06.717Z,55.69
2018-08-30T12:08:35.680Z,53.81
2018-08-30T12:11:05.401Z,54.50
2018-08-30T12:13:34.154Z,55.35
2018-08-30T12:16:04.313Z,57.74
2018-08-30T12:18:34.080Z,55.47
2018-08-30T12:21:03.701Z,55.28
2018-08-30T12:23:33.189Z,55.11
2018-08-30T12:26:01.748Z,55.54
2018-08-30T12:28:31.286Z,54.03
2018-08-30T12:31:01.250Z,55.29
2018-08-30T12:33:30.832Z,56.19
2018-08-30T12:36:00.592Z,56.70
2018-08-30T12:38:28.857Z,55.38
2018-08-30T12:40:58.895Z,53.28
2018-08-30T12:43:30.087Z,53.97
2018-08-30T12:46:04.320Z,54.00
2018-08-30T12:48:33.836Z,54.49
2018-08-30T12:51:04.628Z,54.13
2018-08-30T12:53:36.117Z,53.55
2018-08-30T12:56:06.401Z,54.90
2018-08-30T12:58:36.415Z,55.00
2018-08-30T13:01:05.258Z,55.03
2018-08-30T13:03:35.549Z,55.23
2018-08-30T13:06:05.394Z,56.55
2018-08-30T13:08:34.713Z,58.63
2018-08-30T13:11:04.229Z,58.43
2018-08-30T13:13:33.754Z,60.11
2018-08-30T13:16:03.475Z,59.70
2018-08-30T13:18:32.653Z,63.21
2018-08-30T13:21:03.194Z,63.44
2018-08-30T13:23:31.517Z,64.17
2018-08-30T13:26:01.144Z,62.70
2018-08-30T13:28:31.511Z,63.25
2018-08-30T13:31:00.539Z,62.75
2018-08-30T13:33:29.118Z,62.02
2018-08-30T13:35:57.549Z,62.52
2018-08-30T13:38:26.711Z,61.99
2018-08-30T13:40:56.566Z,62.79
2018-08-30T13:43:26.073Z,62.75
2018-08-30T13:45:55.195Z,63.30
2018-08-30T13:48:23.568Z,63.86
2018-08-30T13:50:54.209Z,65.02
2018-08-30T13:53:23.707Z,64.54
2018-08-30T13:55:52.576Z,65.22
2018-08-30T13:58:21.079Z,65.01
2018-08-30T14:00:51.081Z,66.44
2018-08-30T14:03:18.931Z,65.54
2018-08-30T14:05:48.567Z,66.07
2018-08-30T14:08:18.133Z,67.33
2018-08-30T14:10:47.378Z,66.11
2018-08-30T14:13:19.408Z,66.25
2018-08-30T14:15:47.591Z,66.11
2018-08-30T14:18:17.679Z,66.51
2018-08-30T14:20:46.677Z,65.15
2018-08-30T14:23:16.873Z,66.33
2018-08-30T14:25:46.933Z,66.28
2018-08-30T14:28:17.192Z,64.65
2018-08-30T14:30:46.386Z,65.59
2018-08-30T14:33:14.891Z,65.20
2018-08-30T14:35:44.589Z,64.60
2018-08-30T14:38:13.176Z,64.88
2018-08-30T14:40:43.817Z,65.93
2018-08-30T14:43:15.137Z,64.60
2018-08-30T14:45:44.546Z,64.53
2018-08-30T14:48:14.748Z,64.58
2018-08-30T14:50:43.398Z,64.67
2018-08-30T14:53:13.843Z,64.02
2018-08-30T14:55:45.132Z,64.89
2018-08-30T14:58:15.291Z,65.80
2018-08-30T15:00:45.067Z,65.08
2018-08-30T15:03:14.819Z,66.60
2018-08-30T15:05:43.945Z,63.99
2018-08-30T15:08:12.380Z,63.26
2018-08-30T15:10:41.432Z,62.69
2018-08-30T15:13:12.679Z,61.77
2018-08-30T15:15:42.089Z,61.24
2018-08-30T15:18:13.579Z,60.44
2018-08-30T15:20:42.529Z,60.48
2018-08-30T15:23:11.248Z,61.72
2018-08-30T15:25:40.706Z,60.70
2018-08-30T15:28:10.090Z,58.88
2018-08-30T15:30:39.069Z,60.60
2018-08-30T15:33:08.264Z,60.84
2018-08-30T15:35:37.107Z,60.41
2018-08-30T15:38:06.311Z,60.59
2018-08-30T15:40:36.952Z,61.43
2018-08-30T15:43:17.126Z,61.08
2018-08-30T15:46:02.439Z,58.76
2018-08-30T15:48:31.921Z,58.75
2018-08-30T15:51:01.819Z,60.40
2018-08-30T15:53:31.754Z,58.80
2018-08-30T15:56:03.443Z,58.27
2018-08-30T15:58:34.559Z,59.29
2018-08-30T16:01:04.044Z,59.39
2018-08-30T16:03:38.102Z,58.39
2018-08-30T16:06:07.555Z,58.93
2018-08-30T16:08:39.075Z,58.56
2018-08-30T16:11:11.105Z,58.84
2018-08-30T16:13:40.649Z,59.50
2018-08-30T16:16:10.323Z,59.09
2018-08-30T16:18:40.613Z,58.93
2018-08-30T16:21:13.556Z,57.81
2018-08-30T16:23:43.900Z,57.00
2018-08-30T16:26:13.181Z,59.18
2018-08-30T16:28:41.635Z,59.55
2018-08-30T16:31:10.523Z,57.80
2018-08-30T16:33:39.377Z,57.57
2018-08-30T16:36:09.077Z,57.77
2018-08-30T16:38:37.597Z,57.08
2018-08-30T16:41:07.263Z,56.33
2018-08-30T16:43:36.612Z,57.43
2018-08-30T16:46:06.872Z,60.02
2018-08-30T16:48:36.022Z,60.71
2018-08-30T16:51:05.148Z,60.60
2018-08-30T16:53:35.629Z,60.75
2018-08-30T16:56:04.083Z,61.34
2018-08-30T16:58:32.493Z,62.65
2018-08-30T17:01:01.879Z,64.12
2018-08-30T17:03:31.354Z,62.19
2018-08-30T17:06:00.709Z,61.33
2018-08-30T17:08:31.405Z,62.68
2018-08-30T17:11:00.847Z,62.30
2018-08-30T17:13:30.284Z,62.50
2018-08-30T17:16:02.983Z,61.71
2018-08-30T17:18:31.805Z,62.45
2018-08-30T17:21:00.445Z,61.93
2018-08-30T17:23:28.864Z,61.33
2018-08-30T17:26:00.781Z,60.99
2018-08-30T17:28:30.631Z,61.08
2018-08-30T17:31:00.520Z,61.50
2018-08-30T17:33:30.104Z,61.79
2018-08-30T17:35:59.597Z,60.79
2018-08-30T17:38:28.916Z,62.05
2018-08-30T17:40:59.445Z,65.28
2018-08-30T17:43:28.483Z,67.00
2018-08-30T17:45:58.039Z,66.88
2018-08-30T17:48:27.910Z,66.48
2018-08-30T17:50:57.343Z,67.13
2018-08-30T17:53:27.603Z,68.92
2018-08-30T17:55:56.188Z,70.21
2018-08-30T17:58:25.016Z,71.43
2018-08-30T18:00:54.739Z,71.59
2018-08-30T18:03:24.220Z,71.50
2018-08-30T18:06:00.264Z,72.82
2018-08-30T18:08:28.728Z,73.01
2018-08-30T18:10:57.160Z,75.07
2018-08-30T18:13:26.993Z,75.27
2018-08-30T18:15:56.208Z,75.37
2018-08-30T18:18:25.874Z,74.60
2018-08-30T18:20:55.191Z,74.58
2018-08-30T18:23:25.758Z,75.08
2018-08-30T18:25:56.867Z,75.07
2018-08-30T18:28:25.292Z,75.22
2018-08-30T18:30:58.854Z,75.19
2018-08-30T18:33:29.036Z,74.79
2018-08-30T18:35:58.978Z,76.18
2018-08-30T18:38:28.995Z,77.53
2018-08-30T18:40:57.981Z,77.57
2018-08-30T18:43:27.089Z,78.28
2018-08-30T18:45:57.259Z,78.54
2018-08-30T18:48:26.631Z,78.92
2018-08-30T18:50:57.853Z,79.66
2018-08-30T18:53:28.418Z,79.11
2018-08-30T18:55:57.425Z,79.14
2018-08-30T18:58:25.880Z,79.30
2018-08-30T19:00:54.982Z,80.39
2018-08-30T19:03:25.787Z,80.16
2018-08-30T19:05:54.207Z,80.28
2018-08-30T19:08:24.535Z,80.70
2018-08-30T19:10:53.792Z,81.05
2018-08-30T19:13:24.179Z,79.52
2018-08-30T19:16:01.651Z,79.94
2018-08-30T19:18:35.276Z,79.31
2018-08-30T19:21:04.128Z,79.26
2018-08-30T19:23:34.200Z,79.93
2018-08-30T19:26:03.537Z,79.92
2018-08-30T19:28:31.918Z,79.83
2018-08-30T19:31:02.542Z,81.42
2018-08-30T19:33:32.532Z,81.89
2018-08-30T19:36:07.200Z,81.96
2018-08-30T19:38:35.659Z,82.07
2018-08-30T19:41:11.262Z,81.97
2018-08-30T19:43:40.305Z,82.79
2018-08-30T19:46:14.052Z,82.64
2018-08-30T19:48:44.573Z,83.57
2018-08-30T19:51:14.820Z,81.85
2018-08-30T19:53:44.042Z,83.00
2018-08-30T19:56:14.927Z,82.87
2018-08-30T19:58:45.962Z,83.45
2018-08-30T20:01:15.772Z,83.28
2018-08-30T20:03:45.132Z,82.17
2018-08-30T20:06:15.840Z,81.63
2018-08-30T20:08:48.586Z,83.50
2018-08-30T20:11:19.143Z,81.99
2018-08-30T20:13:49.289Z,81.58
2018-08-30T20:16:19.167Z,81.97
2018-08-30T20:18:49.686Z,82.93
2018-08-30T20:21:20.201Z,83.36
2018-08-30T20:23:50.315Z,83.55
2018-08-30T20:26:19.127Z,84.12
2018-08-30T20:28:48.313Z,84.11
2018-08-30T20:31:17.864Z,83.12
2018-08-30T20:33:47.603Z,83.93
2018-08-30T20:36:17.784Z,83.43
2018-08-30T20:38:47.232Z,84.07
2018-08-30T20:41:16.832Z,83.52
2018-08-30T20:43:46.957Z,84.68
2018-08-30T20:46:15.723Z,85.02
2018-08-30T20:48:49.619Z,84.64
2018-08-30T20:51:18.758Z,85.41
2018-08-30T20:53:47.673Z,85.94
2018-08-30T20:56:16.724Z,85.13
2018-08-30T20:58:46.015Z,84.98
2018-08-30T21:01:15.519Z,85.75
2018-08-30T21:03:44.597Z,85.82
2018-08-30T21:06:13.896Z,85.04
2018-08-30T21:08:42.827Z,84.09
2018-08-30T21:11:12.421Z,84.19
2018-08-30T21:13:40.871Z,84.48
2018-08-30T21:16:11.242Z,83.15
2018-08-30T21:18:40.564Z,83.51
2018-08-30T21:21:10.452Z,83.54
2018-08-30T21:23:39.504Z,83.73
2018-08-30T21:26:09.605Z,84.68
2018-08-30T21:28:40.783Z,84.01
2018-08-30T21:31:12.018Z,85.14
2018-08-30T21:33:44.584Z,84.42
2018-08-30T21:36:20.740Z,83.66
2018-08-30T21:38:53.366Z,84.01
2018-08-30T21:41:25.309Z,83.45
2018-08-30T21:43:58.273Z,84.28
2018-08-30T21:46:33.432Z,84.59
2018-08-30T21:49:04.426Z,85.42
2018-08-30T21:51:34.163Z,84.41
2018-08-30T21:54:07.628Z,85.10
2018-08-30T21:56:38.504Z,84.78
2018-08-30T21:59:08.666Z,84.40
2018-08-30T22:01:41.827Z,84.68
2018-08-30T22:04:13.711Z,84.44
2018-08-30T22:06:43.085Z,82.27
2018-08-30T22:09:13.405Z,82.41
2018-08-30T22:11:44.769Z,83.23
2018-08-30T22:14:16.424Z,83.47
2018-08-30T22:16:45.436Z,83.39
2018-08-30T22:19:15.180Z,82.67
2018-08-30T22:21:43.889Z,83.02
2018-08-30T22:24:12.865Z,82.67
2018-08-30T22:26:42.689Z,83.47
2018-08-30T22:29:12.184Z,83.29
2018-08-30T22:31:41.101Z,81.98
2018-08-30T22:34:11.208Z,81.23
2018-08-30T22:36:41.416Z,81.05
2018-08-30T22:41:43.859Z,83.12
2018-08-30T22:44:13.450Z,82.61
2018-08-30T22:46:44.315Z,83.75
2018-08-30T22:49:13.360Z,83.05
2018-08-30T22:51:42.497Z,83.83
2018-08-30T22:54:11.311Z,84.28
2018-08-30T22:56:40.073Z,83.70
2018-08-30T22:59:10.151Z,83.71
2018-08-30T23:01:39.036Z,83.06
2018-08-30T23:04:07.666Z,82.82
2018-08-30T23:06:36.502Z,82.67
2018-08-30T23:09:06.682Z,83.48
2018-08-30T23:11:35.861Z,85.04
2018-08-30T23:14:05.062Z,84.61
2018-08-30T23:16:37.696Z,84.50
2018-08-30T23:19:06.091Z,84.71
2018-08-30T23:21:34.928Z,85.02
2018-08-30T23:24:04.192Z,84.41
2018-08-30T23:26:33.044Z,84.41
2018-08-30T23:29:02.118Z,84.10
2018-08-30T23:31:31.790Z,84.01
2018-08-30T23:34:01.278Z,84.36
2018-08-30T23:36:30.869Z,85.34
2018-08-30T23:39:01.201Z,87.23
2018-08-30T23:41:30.186Z,86.82
2018-08-30T23:43:59.480Z,86.42
2018-08-30T23:46:30.330Z,86.60
2018-08-30T23:49:01.952Z,87.16
2018-08-30T23:51:30.369Z,86.85
2018-08-30T23:53:59.832Z,86.05
2018-08-30T23:56:29.271Z,85.57
2018-08-30T23:59:08.810Z,86.20
